GMTN/TTU METAR and TAF weather

Enter ICAO airport designator
Station Type Date Time Source
GMTN METAR 2019/12/13 22:00 UTC NOAA

GMTN 132200Z 28013KT 240V310 9999 FEW020 BKN040 17/12 Q1023 NOSIG


Station Type Date Time Source
GMTN Decoded METAR 2019/12/13 22:00 UTC NOAA

Tetuan / Sania Ramel, Morocco (GMTN) 35-35N 005-20W 10M
Dec 13, 2019 - 05:00 PM EST / 2019.12.13 2200 UTC
Wind: from the W (280 degrees) at 15 MPH (13 KT) (direction variable):0
Visibility: greater than 7 mile(s):0
Sky conditions: mostly cloudy
Temperature: 62 F (17 C)
Dew Point: 53 F (12 C)
Relative Humidity: 72%
Pressure (altimeter): 30.21 in. Hg (1023 hPa)
ob: GMTN 132200Z 28013KT 240V310 9999 FEW020 BKN040 17/12 Q1023 NOSIG
cycle: 22

Station Type Date Time Source
GMTN TAF UTC NOAA

Error!

Example: see airport list